Time;durP1;ratioP1;P1;durP2;ratioP2;P2;SDS_P1;SDS_P2;PMS_P1;PMS_P2;Temp;Humidity;BMP_temperature;BMP_pressure;BME280_temperature;BME280_humidity;BME280_pressure;Samples;Min_cycle;Max_cycle;Signal;HPM_P1;HPM_P2
2021/06/12 00:00:00;;;;;;;7.07;6.03;;;;;;;16.92;83.12;100762.97;5028772;28;20593;-72
2021/06/12 00:02:47;;;;;;;6.33;5.00;;;;;;;16.96;83.18;100767.16;5041807;28;20226;-71
2021/06/12 00:05:33;;;;;;;6.00;5.40;;;;;;;16.94;82.21;100765.50;5042886;28;20210;-73
2021/06/12 00:08:21;;;;;;;6.37;5.70;;;;;;;16.94;83.31;100763.75;5045580;28;20292;-71
2021/06/12 00:11:07;;;;;;;5.23;4.73;;;;;;;16.93;82.85;100764.66;5044393;28;20242;-72
2021/06/12 00:13:53;;;;;;;5.90;5.30;;;;;;;16.91;81.80;100769.16;5039950;28;20195;-71
2021/06/12 00:16:40;;;;;;;6.43;5.10;;;;;;;16.86;81.62;100765.06;5039929;28;20234;-72
2021/06/12 00:19:28;;;;;;;6.00;5.00;;;;;;;16.89;82.39;100760.50;5044283;28;20234;-71
2021/06/12 00:22:14;;;;;;;5.57;5.07;;;;;;;16.87;83.39;100751.81;5039999;28;20378;-71
2021/06/12 00:25:02;;;;;;;5.87;5.37;;;;;;;16.86;83.47;100755.38;5043775;28;20214;-71
2021/06/12 00:27:49;;;;;;;6.27;4.70;;;;;;;16.79;82.95;100760.06;5043716;28;20222;-71
2021/06/12 00:30:36;;;;;;;5.60;5.10;;;;;;;16.70;82.16;100750.00;5039974;28;20227;-72
2021/06/12 00:33:22;;;;;;;5.17;4.53;;;;;;;16.65;82.60;100749.38;5048052;28;20210;-71
2021/06/12 00:36:10;;;;;;;5.70;5.20;;;;;;;16.58;82.78;100751.44;5048028;28;20613;-71
2021/06/12 00:38:56;;;;;;;5.40;4.90;;;;;;;16.55;84.18;100751.63;5033906;28;20227;-71
2021/06/12 00:41:44;;;;;;;5.90;5.30;;;;;;;16.47;83.28;100746.72;5034072;28;20286;-71
2021/06/12 00:44:30;;;;;;;6.67;5.67;;;;;;;16.41;84.00;100746.16;5048486;28;20742;-71
2021/06/12 00:47:16;;;;;;;5.57;4.80;;;;;;;16.37;83.89;100741.97;5048556;28;20199;-72
2021/06/12 00:50:03;;;;;;;8.03;5.60;;;;;;;16.35;83.91;100742.03;5048899;28;20257;-71
2021/06/12 00:52:50;;;;;;;6.30;5.70;;;;;;;16.29;84.11;100739.72;5042633;28;20204;-73
2021/06/12 00:55:37;;;;;;;6.63;5.80;;;;;;;16.23;84.77;100735.59;5046996;28;20194;-71
2021/06/12 00:58:25;;;;;;;6.00;5.40;;;;;;;16.21;84.81;100726.09;5041575;28;20305;-71
2021/06/12 01:01:13;;;;;;;5.60;5.10;;;;;;;16.17;85.22;100728.00;5045095;28;20204;-71
2021/06/12 01:03:59;;;;;;;6.87;5.43;;;;;;;16.10;84.38;100731.84;5041622;28;20685;-73
2021/06/12 01:06:49;;;;;;;5.97;5.43;;;;;;;16.06;85.15;100731.16;5046879;28;20554;-73
2021/06/12 01:10:28;;;;;;;6.33;5.73;;;;;;;16.05;86.23;100724.16;5044169;28;20770;-73
2021/06/12 01:13:25;;;;;;;7.33;5.47;;;;;;;15.96;84.83;100729.88;5043285;28;20898;-74
2021/06/12 01:16:19;;;;;;;5.70;5.13;;;;;;;15.91;85.85;100723.97;5045449;28;20349;-74
2021/06/12 01:19:18;;;;;;;6.53;5.73;;;;;;;15.83;85.54;100732.22;5046487;28;20221;-75
2021/06/12 01:30:28;;;;;;;6.30;5.50;;;;;;;15.77;86.89;100726.41;5025184;22;20303;-76
2021/06/12 01:33:15;;;;;;;7.13;6.43;;;;;;;15.76;87.98;100724.69;5037936;28;20262;-76
2021/06/12 01:36:03;;;;;;;7.50;6.73;;;;;;;15.76;87.89;100719.44;5036239;28;20297;-76
2021/06/12 01:38:51;;;;;;;7.13;6.10;;;;;;;15.75;88.76;100710.69;5041569;28;20765;-76
2021/06/12 01:41:39;;;;;;;8.33;6.17;;;;;;;15.77;89.43;100711.47;5031798;28;20264;-76
2021/06/12 01:44:28;;;;;;;7.67;6.37;;;;;;;15.75;88.27;100709.84;5055971;28;20238;-76
2021/06/12 01:47:16;;;;;;;7.73;6.33;;;;;;;15.69;88.12;100708.34;5060029;28;20250;-76
2021/06/12 01:50:05;;;;;;;7.40;6.60;;;;;;;15.66;88.91;100703.22;5058654;28;20261;-76
2021/06/12 01:52:53;;;;;;;6.67;6.07;;;;;;;15.70;90.23;100707.41;5056418;28;20244;-76
2021/06/12 01:55:40;;;;;;;7.47;6.67;;;;;;;15.65;89.25;100712.00;5058632;28;20231;-76
2021/06/12 01:58:27;;;;;;;6.53;5.90;;;;;;;15.64;89.95;100705.06;5057039;28;20247;-76
2021/06/12 02:01:15;;;;;;;7.63;6.90;;;;;;;15.68;90.79;100701.34;5058807;28;20213;-76
2021/06/12 02:04:04;;;;;;;7.07;6.37;;;;;;;15.64;90.00;100703.28;5057865;28;20606;-76
2021/06/12 02:06:51;;;;;;;8.10;7.13;;;;;;;15.61;90.45;100692.06;5055577;28;20222;-76
2021/06/12 02:10:18;;;;;;;6.97;6.27;;;;;;;15.58;90.07;100698.28;5061412;28;20236;-76
2021/06/12 02:21:22;;;;;;;7.47;6.77;;;;;;;15.50;89.79;100693.41;5054134;28;20737;-76
2021/06/12 02:24:10;;;;;;;7.80;6.87;;;;;;;15.52;91.32;100694.16;5064361;28;20297;-76
2021/06/12 02:26:57;;;;;;;7.60;6.90;;;;;;;15.51;91.19;100688.97;5056745;28;20215;-76
2021/06/12 02:29:44;;;;;;;7.50;6.70;;;;;;;15.48;90.40;100692.63;5051255;28;20203;-76
2021/06/12 02:32:37;;;;;;;6.83;6.13;;;;;;;15.52;91.72;100688.06;5058402;28;20238;-76
2021/06/12 02:35:23;;;;;;;9.20;7.90;;;;;;;15.52;92.02;100694.16;5054724;28;20458;-76
2021/06/12 02:38:11;;;;;;;7.83;7.03;;;;;;;15.52;91.37;100686.28;5054549;28;20206;-76
2021/06/12 02:40:58;;;;;;;8.73;6.53;;;;;;;15.50;91.66;100682.03;5038425;28;20529;-76
2021/06/12 02:43:45;;;;;;;8.53;7.60;;;;;;;15.52;91.35;100695.97;5055152;28;20685;-76
2021/06/12 02:46:34;;;;;;;7.87;7.07;;;;;;;15.52;91.81;100686.28;5059834;28;20219;-76
2021/06/12 02:49:26;;;;;;;10.33;7.80;;;;;;;15.55;91.88;100693.19;5050819;28;20718;-76
2021/06/12 02:52:16;;;;;;;8.57;7.77;;;;;;;15.56;91.79;100681.75;5053685;28;20210;-76
2021/06/12 02:55:07;;;;;;;10.30;7.60;;;;;;;15.56;90.98;100687.00;5060164;28;20280;-76
2021/06/12 02:57:54;;;;;;;8.80;7.37;;;;;;;15.60;92.14;100679.81;5054069;28;20720;-76
2021/06/12 03:00:42;;;;;;;8.53;7.70;;;;;;;15.57;91.81;100682.63;5060441;28;20642;-76
2021/06/12 03:03:29;;;;;;;8.67;7.77;;;;;;;15.55;91.84;100687.94;5053938;28;20349;-76
2021/06/12 03:06:19;;;;;;;9.10;8.27;;;;;;;15.59;91.95;100683.41;5040131;28;20302;-76
2021/06/12 03:09:06;;;;;;;7.90;7.20;;;;;;;15.61;91.98;100676.28;5060690;28;20202;-76
2021/06/12 03:11:56;;;;;;;9.43;8.30;;;;;;;15.62;92.50;100675.34;5054318;28;20224;-77
2021/06/12 03:14:42;;;;;;;9.67;7.60;;;;;;;15.61;91.94;100669.25;5054822;28;20230;-76
2021/06/12 03:17:29;;;;;;;8.97;8.03;;;;;;;15.61;92.56;100681.53;5056578;28;20371;-76
2021/06/12 03:20:17;;;;;;;8.87;7.97;;;;;;;15.59;92.79;100678.13;5053963;28;20337;-76
2021/06/12 03:23:04;;;;;;;8.67;7.87;;;;;;;15.62;93.27;100676.22;5046680;28;20206;-76
2021/06/12 03:25:52;;;;;;;9.00;8.10;;;;;;;15.60;93.12;100675.44;5055530;28;20214;-76
2021/06/12 03:28:41;;;;;;;9.93;7.73;;;;;;;15.61;92.96;100674.50;5053363;28;20202;-76
2021/06/12 03:31:29;;;;;;;8.70;7.70;;;;;;;15.58;92.86;100668.53;5060042;28;20623;-76
2021/06/12 03:34:16;;;;;;;9.03;8.20;;;;;;;15.60;93.14;100672.81;5057278;28;20292;-76
2021/06/12 03:37:03;;;;;;;9.37;7.87;;;;;;;15.63;93.46;100670.03;5058776;28;20241;-76
2021/06/12 03:39:50;;;;;;;10.93;8.27;;;;;;;15.67;93.64;100674.22;5054619;28;20549;-76
2021/06/12 03:42:37;;;;;;;9.97;7.97;;;;;;;15.70;93.50;100673.22;5052943;28;20198;-76
2021/06/12 03:45:27;;;;;;;8.40;7.57;;;;;;;15.75;92.71;100681.78;5045611;28;20218;-76
2021/06/12 03:48:14;;;;;;;8.70;7.90;;;;;;;15.84;93.52;100685.75;5048920;28;20198;-76
2021/06/12 03:51:02;;;;;;;8.97;8.07;;;;;;;15.87;92.81;100675.94;5059992;28;20233;-76
2021/06/12 03:53:49;;;;;;;8.60;7.70;;;;;;;15.98;93.62;100679.84;5053124;28;20195;-76
2021/06/12 03:56:38;;;;;;;9.53;7.97;;;;;;;16.01;93.36;100677.91;5053136;28;20260;-76
2021/06/12 03:59:25;;;;;;;8.90;8.00;;;;;;;16.05;93.43;100682.09;5058485;28;20276;-76
2021/06/12 04:02:15;;;;;;;9.70;8.70;;;;;;;16.13;93.53;100676.50;5042176;28;20203;-76
2021/06/12 04:05:02;;;;;;;8.20;7.43;;;;;;;16.20;93.48;100677.88;5041741;28;20215;-76
2021/06/12 04:07:48;;;;;;;8.87;7.97;;;;;;;16.25;93.24;100680.28;5034500;28;20451;-76
2021/06/12 04:10:34;;;;;;;8.80;8.00;;;;;;;16.27;92.87;100684.56;5040230;28;20207;-76
2021/06/12 04:13:20;;;;;;;8.93;8.00;;;;;;;16.34;92.93;100687.75;5059616;28;20311;-76
2021/06/12 04:16:07;;;;;;;9.40;8.47;;;;;;;16.40;92.82;100684.78;5053801;28;20232;-76
2021/06/12 04:18:55;;;;;;;8.37;7.57;;;;;;;16.50;92.70;100687.84;5055319;28;20304;-76
2021/06/12 04:21:41;;;;;;;9.97;8.33;;;;;;;16.56;92.72;100687.50;5055346;28;20417;-76
2021/06/12 04:24:28;;;;;;;8.50;7.60;;;;;;;16.59;92.48;100686.53;5052843;28;20307;-76
2021/06/12 04:27:14;;;;;;;9.33;7.97;;;;;;;16.65;92.78;100694.09;5060381;28;20679;-76
2021/06/12 04:30:00;;;;;;;8.87;7.97;;;;;;;16.67;92.66;100686.97;5053015;28;20333;-76
2021/06/12 04:32:47;;;;;;;9.50;8.33;;;;;;;16.71;91.93;100691.16;5041949;28;20211;-76
2021/06/12 04:35:35;;;;;;;8.40;7.70;;;;;;;16.71;92.09;100691.16;5041287;28;20239;-76
2021/06/12 04:38:21;;;;;;;9.37;8.40;;;;;;;16.73;91.95;100696.34;5028458;28;20279;-76
2021/06/12 04:41:08;;;;;;;9.13;7.73;;;;;;;16.77;92.05;100700.53;5068284;28;20283;-76
2021/06/12 04:43:54;;;;;;;8.30;7.50;;;;;;;16.82;91.37;100696.72;5052172;28;20690;-76
2021/06/12 04:46:42;;;;;;;8.63;7.80;;;;;;;16.92;91.42;100688.38;5052141;28;20732;-76
2021/06/12 04:49:28;;;;;;;9.17;8.30;;;;;;;16.98;91.29;100688.06;5056642;28;20198;-76
2021/06/12 04:52:16;;;;;;;8.03;7.37;;;;;;;17.08;90.80;100681.41;5052847;28;20720;-76
2021/06/12 04:55:02;;;;;;;8.67;7.87;;;;;;;17.29;90.08;100686.44;5057861;28;20663;-76
2021/06/12 04:57:49;;;;;;;8.10;7.40;;;;;;;17.55;89.86;100680.66;5052640;28;20265;-76
2021/06/12 05:00:35;;;;;;;8.50;7.70;;;;;;;17.76;88.53;100678.63;5053636;28;20203;-76
2021/06/12 05:03:21;;;;;;;7.90;7.07;;;;;;;17.94;86.65;100689.09;5054382;28;20289;-76
2021/06/12 05:06:07;;;;;;;8.70;7.30;;;;;;;18.08;87.08;100690.94;5031389;28;20930;-76
2021/06/12 05:08:55;;;;;;;9.07;6.80;;;;;;;18.21;86.74;100686.69;5052551;28;20214;-76
2021/06/12 05:11:41;;;;;;;7.87;7.07;;;;;;;18.33;85.82;100683.34;5055701;28;20218;-76
2021/06/12 05:14:27;;;;;;;7.30;6.70;;;;;;;18.47;86.17;100681.72;5051762;28;20241;-76
2021/06/12 05:17:16;;;;;;;7.80;6.87;;;;;;;18.49;85.34;100677.19;5058989;28;20225;-76
2021/06/12 05:20:04;;;;;;;6.90;6.27;;;;;;;18.51;85.19;100683.22;5056498;28;20213;-76
2021/06/12 05:22:50;;;;;;;8.33;6.70;;;;;;;18.58;84.85;100679.28;5055079;28;20209;-77
2021/06/12 05:25:38;;;;;;;6.67;6.07;;;;;;;18.66;84.17;100679.69;5062406;28;20208;-76
2021/06/12 05:28:24;;;;;;;6.77;6.17;;;;;;;18.75;83.29;100686.22;5052468;28;20199;-76
2021/06/12 05:31:10;;;;;;;6.47;5.87;;;;;;;18.90;83.69;100693.25;5058188;28;20310;-76
2021/06/12 05:33:56;;;;;;;7.17;6.33;;;;;;;19.06;82.53;100700.25;5056532;28;20205;-76
2021/06/12 05:36:43;;;;;;;6.50;5.87;;;;;;;19.25;82.88;100694.69;5055345;28;20253;-76
2021/06/12 05:39:29;;;;;;;8.40;6.03;;;;;;;19.42;81.38;100693.66;5058093;28;20760;-76
2021/06/12 05:42:17;;;;;;;6.90;6.20;;;;;;;19.61;81.11;100690.69;5052640;28;20507;-76
2021/06/12 05:45:05;;;;;;;6.93;6.23;;;;;;;19.82;79.81;100684.09;5058256;28;20206;-76
2021/06/12 05:48:44;;;;;;;7.17;6.20;;;;;;;20.09;78.36;100687.69;5055048;28;20313;-76
2021/06/12 05:51:31;;;;;;;5.80;5.30;;;;;;;20.32;78.66;100683.56;5055986;28;20198;-76
2021/06/12 05:55:13;;;;;;;6.07;5.50;;;;;;;20.56;79.18;100681.91;5060500;28;20198;-76
2021/06/12 06:02:08;;;;;;;5.53;4.97;;;;;;;21.02;74.80;100687.69;5057578;28;20209;-76
2021/06/12 06:04:54;;;;;;;5.23;4.73;;;;;;;21.15;75.16;100693.84;5053815;28;20413;-76
2021/06/12 06:08:08;;;;;;;5.30;4.80;;;;;;;21.22;73.23;100692.47;5060042;28;20253;-76
2021/06/12 06:15:53;;;;;;;4.90;4.00;;;;;;;21.42;73.15;100691.06;5056857;28;20640;-76
2021/06/12 06:19:25;;;;;;;4.20;3.80;;;;;;;21.38;71.67;100690.44;5052911;28;20214;-77
2021/06/12 06:22:13;;;;;;;5.37;3.90;;;;;;;21.42;70.87;100695.53;5054509;28;20213;-76
2021/06/12 06:24:59;;;;;;;4.77;4.23;;;;;;;21.65;72.76;100696.56;5051439;28;20230;-76
2021/06/12 06:27:46;;;;;;;4.23;3.83;;;;;;;21.74;70.84;100693.28;5051274;28;20222;-76
2021/06/12 06:30:32;;;;;;;4.30;3.90;;;;;;;21.79;70.11;100682.31;5060245;28;20389;-76
2021/06/12 06:33:21;;;;;;;4.83;4.00;;;;;;;21.80;70.65;100690.16;5052761;28;20263;-76
2021/06/12 06:36:07;;;;;;;4.57;4.13;;;;;;;21.88;68.31;100695.78;5052581;28;20239;-76
2021/06/12 06:38:55;;;;;;;5.10;4.70;;;;;;;21.96;67.44;100695.22;5058303;28;20202;-76
2021/06/12 06:41:41;;;;;;;5.63;4.20;;;;;;;22.21;69.06;100696.91;5056399;28;20260;-76
2021/06/12 06:44:27;;;;;;;3.90;3.60;;;;;;;22.37;66.88;100703.75;5059445;28;20232;-76
2021/06/12 06:47:14;;;;;;;4.00;3.70;;;;;;;22.48;66.63;100703.81;5052183;28;20476;-76
2021/06/12 06:50:00;;;;;;;4.70;3.70;;;;;;;22.57;66.49;100697.81;5060483;28;20217;-77
2021/06/12 06:52:48;;;;;;;4.13;3.77;;;;;;;22.75;64.69;100703.53;5059534;28;20238;-76
2021/06/12 06:55:35;;;;;;;4.57;3.70;;;;;;;23.02;65.78;100694.41;5055774;28;20230;-76
2021/06/12 06:58:22;;;;;;;5.75;3.42;;;;;;;23.22;64.37;100693.72;5059572;28;20287;-76
2021/06/12 07:01:08;;;;;;;4.30;3.67;;;;;;;23.43;65.43;100693.03;5055986;28;20202;-76
2021/06/12 07:03:54;;;;;;;5.18;3.60;;;;;;;23.39;63.45;100683.56;5056332;28;20267;-77
2021/06/12 07:06:40;;;;;;;4.07;3.67;;;;;;;23.10;62.40;100701.84;5062242;28;20226;-76
2021/06/12 07:09:27;;;;;;;4.00;3.63;;;;;;;22.79;64.12;100681.06;5044512;28;20245;-76
2021/06/12 07:12:14;;;;;;;4.32;3.92;;;;;;;22.62;63.83;100679.72;5059067;28;20654;-76
2021/06/12 07:15:01;;;;;;;4.35;4.00;;;;;;;22.42;65.27;100675.06;5058012;28;20540;-76
2021/06/12 07:17:47;;;;;;;3.88;3.58;;;;;;;22.38;67.40;100668.28;5053070;28;20245;-76
2021/06/12 07:20:33;;;;;;;4.45;3.78;;;;;;;22.36;66.29;100668.41;5060855;28;20233;-77
2021/06/12 07:23:19;;;;;;;4.28;3.90;;;;;;;22.16;66.63;100669.84;5057318;28;20332;-76
2021/06/12 07:26:05;;;;;;;7.47;4.00;;;;;;;22.15;67.22;100669.97;5058692;28;20268;-76
2021/06/12 07:28:53;;;;;;;7.93;4.00;;;;;;;22.19;67.31;100682.91;5059781;28;20194;-77
2021/06/12 07:31:41;;;;;;;4.18;3.78;;;;;;;21.97;65.89;100688.09;5055505;28;20679;-76
2021/06/12 07:34:27;;;;;;;4.57;3.70;;;;;;;21.90;66.65;100685.06;5059005;28;20234;-77
2021/06/12 07:37:13;;;;;;;3.63;3.30;;;;;;;21.77;68.47;100676.28;5053172;28;20246;-77
2021/06/12 07:40:00;;;;;;;3.60;3.30;;;;;;;21.57;66.91;100677.72;5052788;28;20206;-76
2021/06/12 07:42:46;;;;;;;4.20;3.30;;;;;;;21.52;68.29;100686.00;5059211;28;20199;-76
2021/06/12 07:45:34;;;;;;;4.33;3.43;;;;;;;21.33;68.04;100681.13;5028654;28;20207;-76
2021/06/12 07:48:20;;;;;;;3.77;3.47;;;;;;;21.29;69.17;100682.28;5036930;28;20643;-77
2021/06/12 07:51:07;;;;;;;4.50;3.60;;;;;;;21.17;69.25;100684.00;5033895;28;20227;-76
2021/06/12 07:53:53;;;;;;;3.57;3.27;;;;;;;21.12;69.54;100683.47;5036919;28;20199;-77
2021/06/12 07:56:39;;;;;;;3.87;3.57;;;;;;;21.01;70.38;100686.84;5033441;28;20250;-76
2021/06/12 07:59:26;;;;;;;5.13;3.67;;;;;;;20.96;70.54;100683.69;5033087;28;20269;-76
2021/06/12 08:02:13;;;;;;;4.00;3.70;;;;;;;20.94;70.73;100680.28;5034188;28;20216;-76
2021/06/12 08:04:59;;;;;;;3.70;3.40;;;;;;;20.94;70.40;100672.34;5033404;28;20207;-77
2021/06/12 08:07:46;;;;;;;3.53;3.23;;;;;;;20.99;70.04;100679.00;5037846;28;20226;-76
2021/06/12 08:10:32;;;;;;;3.60;3.30;;;;;;;21.18;72.10;100675.09;5052643;28;21077;-77
2021/06/12 08:13:18;;;;;;;3.93;3.50;;;;;;;21.38;69.37;100671.03;5054301;28;20217;-76
2021/06/12 08:16:05;;;;;;;3.80;3.50;;;;;;;21.51;69.83;100674.56;5056986;28;20817;-77
2021/06/12 08:18:53;;;;;;;4.80;3.77;;;;;;;21.69;69.75;100683.00;5054437;28;20210;-77
2021/06/12 08:21:39;;;;;;;4.17;3.77;;;;;;;21.83;68.27;100694.38;5057541;28;20299;-77
2021/06/12 08:24:26;;;;;;;3.70;3.10;;;;;;;21.77;69.26;100678.94;5057084;28;20202;-76
2021/06/12 08:27:12;;;;;;;3.60;3.30;;;;;;;21.70;69.41;100687.31;5048937;28;20261;-77
2021/06/12 08:29:58;;;;;;;3.60;3.30;;;;;;;21.73;70.00;100687.09;5053507;28;20214;-76
2021/06/12 08:32:45;;;;;;;3.30;3.00;;;;;;;21.86;69.00;100679.13;5053646;28;20653;-76
2021/06/12 08:35:33;;;;;;;4.37;3.27;;;;;;;21.92;68.34;100688.44;5053183;28;20574;-77
2021/06/12 08:38:20;;;;;;;3.67;3.30;;;;;;;21.90;67.75;100693.00;5052535;28;21306;-77
2021/06/12 08:41:06;;;;;;;3.70;3.40;;;;;;;21.88;67.62;100682.50;5033337;28;20576;-77
2021/06/12 08:43:57;;;;;;;3.60;3.27;;;;;;;21.85;67.45;100676.56;5056120;28;20246;-77
2021/06/12 08:46:45;;;;;;;4.80;3.40;;;;;;;21.98;67.46;100684.47;5036359;28;20728;-77
2021/06/12 08:49:31;;;;;;;3.10;2.80;;;;;;;22.12;67.67;100690.47;5052376;28;20214;-77
2021/06/12 08:52:19;;;;;;;4.33;3.57;;;;;;;22.45;68.47;100674.84;5057480;28;20210;-77
2021/06/12 08:55:07;;;;;;;4.97;3.00;;;;;;;22.72;66.69;100681.66;5058816;28;20257;-77
2021/06/12 08:57:53;;;;;;;3.92;3.30;;;;;;;22.66;65.67;100680.34;5057620;28;20222;-77
2021/06/12 09:00:40;;;;;;;3.78;3.40;;;;;;;22.53;65.99;100680.38;5061481;28;20618;-77
2021/06/12 09:03:28;;;;;;;4.22;3.08;;;;;;;22.62;66.84;100673.53;5055220;28;20214;-77
2021/06/12 09:06:18;;;;;;;3.63;3.13;;;;;;;22.71;65.70;100685.28;5045063;28;20228;-76
2021/06/12 09:09:06;;;;;;;4.47;3.38;;;;;;;22.76;65.94;100686.63;5060394;28;20388;-77
2021/06/12 09:11:52;;;;;;;3.55;2.85;;;;;;;22.62;66.32;100681.50;5056783;28;20709;-76
2021/06/12 09:14:38;;;;;;;4.95;3.35;;;;;;;22.71;68.44;100687.94;5058038;28;20234;-77
2021/06/12 09:17:37;;;;;;;3.70;3.40;;;;;;;22.59;66.87;100682.59;5053513;28;20266;-77
2021/06/12 09:20:44;;;;;;;3.90;3.50;;;;;;;22.73;66.00;100672.75;5055578;28;20206;-77
2021/06/12 09:23:38;;;;;;;3.78;3.42;;;;;;;22.86;64.95;100665.50;5044622;28;20203;-77
2021/06/12 09:26:45;;;;;;;3.80;3.50;;;;;;;23.04;66.03;100660.56;5053476;28;20238;-77
2021/06/12 09:29:36;;;;;;;3.83;3.25;;;;;;;23.36;65.47;100652.75;5058549;28;20202;-77
2021/06/12 09:32:24;;;;;;;3.53;3.22;;;;;;;23.52;65.83;100652.38;5059919;28;20671;-77
2021/06/12 09:35:11;;;;;;;4.25;3.17;;;;;;;23.83;67.85;100644.56;5054721;28;20242;-77
2021/06/12 09:37:59;;;;;;;4.00;3.70;;;;;;;23.86;64.18;100662.97;5058316;28;20230;-77
2021/06/12 09:40:45;;;;;;;5.85;3.83;;;;;;;23.83;62.76;100660.53;5058225;28;20198;-77
2021/06/12 09:43:33;;;;;;;4.43;3.15;;;;;;;23.78;63.61;100652.94;5041777;28;20202;-77
2021/06/12 09:46:46;;;;;;;3.90;3.58;;;;;;;23.95;63.92;100650.72;5056461;28;20300;-77
2021/06/12 09:49:35;;;;;;;4.80;4.05;;;;;;;23.94;62.57;100657.88;5020443;28;20278;-77
2021/06/12 09:52:21;;;;;;;4.22;3.67;;;;;;;24.14;61.69;100663.38;5056077;28;20758;-77
2021/06/12 09:55:08;;;;;;;3.83;3.40;;;;;;;24.21;62.22;100661.03;5057313;28;20233;-77
2021/06/12 09:57:56;;;;;;;5.40;3.50;;;;;;;24.11;60.55;100650.31;5055730;28;20246;-77
2021/06/12 10:00:45;;;;;;;5.00;3.70;;;;;;;24.14;62.85;100645.56;5059519;28;20256;-77
2021/06/12 10:03:32;;;;;;;4.57;3.53;;;;;;;24.28;59.86;100638.25;5055116;28;20806;-77
2021/06/12 10:06:20;;;;;;;3.90;3.50;;;;;;;24.52;60.99;100641.50;5056306;28;20266;-77
2021/06/12 10:09:08;;;;;;;4.20;3.65;;;;;;;24.56;60.93;100634.97;5052371;28;20214;-77
2021/06/12 10:12:36;;;;;;;4.50;3.15;;;;;;;24.73;59.73;100638.88;5057456;28;20207;-77
2021/06/12 10:15:59;;;;;;;3.97;3.58;;;;;;;24.68;58.58;100633.09;5054772;28;20260;-77
2021/06/12 10:19:14;;;;;;;4.88;3.40;;;;;;;24.43;59.13;100628.09;5059269;28;20223;-77
2021/06/12 10:22:01;;;;;;;3.28;2.97;;;;;;;24.37;58.28;100624.97;5056678;28;20219;-77
2021/06/12 10:24:47;;;;;;;4.47;2.97;;;;;;;24.21;59.72;100613.94;5056030;28;20249;-77
2021/06/12 10:27:34;;;;;;;3.78;3.35;;;;;;;24.21;60.73;100624.59;5060143;28;20222;-77
2021/06/12 10:30:21;;;;;;;3.63;3.20;;;;;;;24.23;60.35;100601.34;5053406;28;20651;-77
2021/06/12 10:33:16;;;;;;;3.20;3.00;;;;;;;24.29;61.51;100590.19;5058185;28;20238;-77
2021/06/12 10:40:44;;;;;;;3.53;3.20;;;;;;;24.50;60.54;100584.84;5013525;28;20735;-77
2021/06/12 10:43:38;;;;;;;3.25;2.97;;;;;;;24.59;60.55;100587.72;5042624;28;20206;-77
2021/06/12 10:46:25;;;;;;;3.38;2.80;;;;;;;24.54;59.42;100572.13;5057466;28;20311;-77
2021/06/12 10:49:28;;;;;;;4.20;2.90;;;;;;;24.38;60.51;100559.25;5042531;28;20195;-77
2021/06/12 10:52:14;;;;;;;3.20;2.90;;;;;;;24.25;60.73;100554.09;5045640;28;20256;-77
2021/06/12 10:55:00;;;;;;;3.15;2.95;;;;;;;24.05;60.32;100547.81;5052131;28;20529;-77
2021/06/12 10:57:46;;;;;;;4.18;3.13;;;;;;;23.71;60.83;100549.72;5050758;28;20235;-77
2021/06/12 11:00:33;;;;;;;3.63;3.28;;;;;;;23.56;61.88;100542.03;5058161;28;20194;-77
2021/06/12 11:03:48;;;;;;;3.22;2.92;;;;;;;23.35;62.10;100534.00;5051060;28;20411;-77
2021/06/12 11:06:50;;;;;;;3.45;3.15;;;;;;;23.10;62.94;100550.28;5050906;28;20694;-77
2021/06/12 11:13:43;;;;;;;5.10;3.25;;;;;;;21.56;78.52;100607.88;5048248;28;20694;-76
2021/06/12 11:16:30;;;;;;;6.13;4.47;;;;;;;20.01;89.96;100592.94;5053165;28;20221;-77
2021/06/12 11:19:19;;;;;;;4.17;3.77;;;;;;;19.59;94.63;100600.88;5051993;28;20312;-77
2021/06/12 11:26:15;;;;;;;7.03;5.00;;;;;;;19.01;100.00;100588.72;5050273;28;20298;-77
2021/06/12 11:29:09;;;;;;;4.83;4.40;;;;;;;18.81;100.00;100574.91;5048813;28;20198;-77
2021/06/12 11:39:03;;;;;;;5.30;4.80;;;;;;;18.80;100.00;100570.56;5019217;22;20488;-73
2021/06/12 11:45:54;;;;;;;5.90;5.27;;;;;;;18.98;100.00;100573.03;4969344;28;20205;-73
2021/06/12 12:09:11;;;;;;;9.47;8.47;;;;;;;18.84;100.00;100566.84;5018757;28;20889;-73
2021/06/12 12:12:00;;;;;;;9.03;8.13;;;;;;;18.86;100.00;100564.94;5011057;28;20236;-73
2021/06/12 12:14:50;;;;;;;9.67;8.63;;;;;;;18.81;100.00;100561.69;5023847;28;20207;-73
2021/06/12 12:34:06;;;;;;;12.77;11.10;;;;;;;19.51;100.00;100536.22;5028801;28;20196;-73
2021/06/12 12:37:22;;;;;;;14.47;11.77;;;;;;;19.62;100.00;100539.88;5031360;28;20274;-73
2021/06/12 12:40:27;;;;;;;13.33;11.53;;;;;;;19.80;100.00;100539.63;5028497;28;20231;-73
2021/06/12 12:43:27;;;;;;;11.70;10.50;;;;;;;19.85;100.00;100533.09;5032734;28;20693;-73
2021/06/12 12:51:05;;;;;;;11.50;9.70;;;;;;;20.58;100.00;100514.97;5026305;28;20203;-73
2021/06/12 13:02:08;;;;;;;7.50;6.70;;;;;;;20.67;95.36;100503.75;5025838;28;20917;-73
2021/06/12 13:05:12;;;;;;;6.90;6.20;;;;;;;20.84;93.88;100507.00;5006837;28;20231;-73
2021/06/12 13:19:44;;;;;;;5.80;4.30;;;;;;;20.97;86.05;100513.97;5035202;28;20572;-74
2021/06/12 13:22:33;;;;;;;4.93;3.73;;;;;;;21.02;88.67;100492.44;5038120;28;20203;-77
2021/06/12 13:25:22;;;;;;;4.30;3.90;;;;;;;20.88;84.12;100500.50;5019103;28;20216;-73
2021/06/12 13:28:11;;;;;;;4.20;3.80;;;;;;;20.86;84.93;100499.78;5015742;28;20188;-73
2021/06/12 13:30:57;;;;;;;3.73;3.43;;;;;;;20.88;84.79;100495.22;5016676;28;20264;-73
2021/06/12 13:33:44;;;;;;;4.70;3.63;;;;;;;20.86;84.70;100487.41;5022923;28;20224;-71
2021/06/12 13:36:30;;;;;;;3.50;3.20;;;;;;;20.81;83.39;100478.94;5018096;28;20204;-71
2021/06/12 13:39:27;;;;;;;3.70;3.10;;;;;;;20.75;83.36;100480.19;5021058;28;20215;-73
2021/06/12 13:42:18;;;;;;;3.60;3.17;;;;;;;20.59;81.36;100492.81;5021154;28;20208;-71
2021/06/12 13:45:08;;;;;;;3.60;3.30;;;;;;;20.38;80.89;100495.16;5019989;28;20296;-74
2021/06/12 13:47:54;;;;;;;3.47;3.17;;;;;;;20.23;82.58;100500.56;5016249;28;20677;-71
2021/06/12 13:50:41;;;;;;;4.23;3.63;;;;;;;20.13;85.01;100502.13;5023750;28;20219;-71
2021/06/12 13:53:38;;;;;;;3.80;3.40;;;;;;;20.06;84.52;100508.78;5023357;28;20220;-71
2021/06/12 13:56:27;;;;;;;4.57;3.37;;;;;;;19.83;83.51;100515.63;5022029;28;20202;-71
2021/06/12 13:59:15;;;;;;;3.47;3.17;;;;;;;19.74;86.81;100511.81;5025408;28;20220;-74
2021/06/12 14:02:01;;;;;;;4.13;3.50;;;;;;;19.57;89.24;100517.31;5018067;28;20751;-71
2021/06/12 14:04:47;;;;;;;3.93;3.63;;;;;;;19.15;90.10;100525.28;5022117;28;20231;-73
2021/06/12 14:07:40;;;;;;;5.10;3.87;;;;;;;18.74;93.99;100555.09;5015603;28;20192;-74
2021/06/12 14:10:27;;;;;;;5.93;4.70;;;;;;;18.00;98.63;100599.06;5017480;28;20292;-74
2021/06/12 14:13:14;;;;;;;5.33;2.97;;;;;;;16.97;100.00;100615.25;5021938;28;20222;-78
2021/06/12 14:16:02;;;;;;;5.27;2.80;;;;;;;16.32;100.00;100607.16;5023543;28;20258;-78
2021/06/12 14:18:48;;;;;;;3.47;3.07;;;;;;;16.24;100.00;100597.88;5020240;28;20258;-78
2021/06/12 14:21:35;;;;;;;4.70;3.07;;;;;;;16.02;100.00;100605.13;5024149;28;20664;-76
2021/06/12 14:24:24;;;;;;;4.50;3.23;;;;;;;15.95;100.00;100609.00;5016518;28;20259;-78
2021/06/12 14:27:11;;;;;;;3.30;3.00;;;;;;;15.77;100.00;100592.34;5021389;28;20207;-76
2021/06/12 14:29:58;;;;;;;6.23;4.33;;;;;;;15.81;100.00;100579.00;5022425;28;20208;-77
2021/06/12 14:32:46;;;;;;;5.87;4.40;;;;;;;15.82;100.00;100577.19;5024580;28;20666;-79
2021/06/12 14:35:32;;;;;;;6.10;5.13;;;;;;;15.77;100.00;100577.41;5023936;28;20623;-75
2021/06/12 14:42:27;;;;;;;7.03;5.60;;;;;;;15.76;100.00;100607.28;5022652;28;20200;-75
2021/06/12 14:45:14;;;;;;;7.77;5.90;;;;;;;15.79;100.00;100627.28;5017335;28;20711;-75
2021/06/12 14:48:28;;;;;;;9.10;6.73;;;;;;;15.87;100.00;100648.81;5006473;28;20224;-75
2021/06/12 14:55:22;;;;;;;8.47;7.10;;;;;;;15.74;100.00;100656.38;5022228;28;20828;-75
2021/06/12 14:58:14;;;;;;;7.93;6.73;;;;;;;15.56;100.00;100658.09;5022159;28;20230;-75
2021/06/12 15:01:00;;;;;;;7.50;6.40;;;;;;;15.42;100.00;100642.97;5014325;28;20245;-75
2021/06/12 15:07:56;;;;;;;8.57;5.87;;;;;;;15.13;100.00;100626.75;5023834;28;20545;-74
2021/06/12 15:10:43;;;;;;;7.37;5.93;;;;;;;15.02;100.00;100634.28;5021612;28;20601;-74